Aviation Digital Data Service (ADDS)

Output produced by METARs form (1730 UTC 03 June 2020)
found at http://www.aviationweather.gov/metar/data/
 
Forecast for: ZGHA (HUANGHUA/CHANGSH, CN)
Text: TAF ZGHA 031502Z 0318/0418 18004MPS 5000 BR SCT020 BKN050 TX32/0406Z TN22/0322Z
Forecast period: 1800 UTC 03 June 2020 to 1800 UTC 04 June 2020
Forecast type: FROM: standard forecast or significant change
Winds: from the S (180 degrees) at 9 MPH (8 knots; 4.1 m/s)
Visibility: 3 miles (5 km)
Ceiling: 5000 feet AGL
Clouds: scattered clouds at 2000 feet AGL
broken clouds at 5000 feet AGL
Weather: BR  (mist)
Text: TEMPO 0414/0418 2200 SHRA BKN011 FEW030CB BKN040
Forecast period: 1400 to 1800 UTC 04 June 2020
Forecast type: TEMPORARY: The following changes expected for less than half the time period
Visibility: 1.37 miles (2.20 km)
Ceiling: 1100 feet AGL
Clouds: broken clouds at 1100 feet AGL
few clouds at 3000 feet AGL
broken clouds at 4000 feet AGL
Weather: SHRA  (rain showers)